Aviation Digital Data Service (ADDS)

Output produced by METARs form (1518 UTC 21 July 2017)
found at http://www.aviationweather.gov/adds/metars/
 
KBFD 211453Z AUTO 31007KT 10SM FEW023 SCT037 BKN048 26/20 A3004 RMK AO2 SLP153 T02610200 55000
KBFD 211353Z AUTO 33006KT 10SM SCT021 25/21 A3003 RMK AO2 SLP150 T02500206
KBFD 211253Z AUTO 32004KT 10SM CLR 22/21 A3004 RMK AO2 SLP153 T02220206
KBFD 211200Z AUTO 00000KT 10SM SCT002 20/20 A3004 RMK AO2 T02000200
KBFD 211153Z AUTO VRB04KT 2 1/2SM BR BKN002 19/19 A3004 RMK AO2 SLP153 T01940194 10200 20167 53007
KBFD 211146Z AUTO 00000KT 1/2SM FG VV002 19/19 A3004 RMK AO2 T01940194
KBFD 211053Z AUTO 00000KT M1/4SM FG VV001 18/18 A3003 RMK AO2 SLP150 T01830183
KBFD 210953Z AUTO 00000KT 1/4SM FG VV001 17/17 A3002 RMK AO2 SLP146 T01720172
KBFD 210909Z AUTO 00000KT 1/4SM FG BKN001 OVC042 18/18 A3001 RMK AO2 T01830183
KBFD 210902Z AUTO 00000KT 1/2SM FG OVC001 18/18 A3001 RMK AO2 T01830183
KBFD 210853Z AUTO 00000KT 1 1/4SM BR OVC001 19/19 A3001 RMK AO2 SLP145 T01890189 55004
KBFD 210847Z AUTO 00000KT 1 3/4SM BR OVC001 19/19 A3002 RMK AO2
KBFD 210843Z AUTO 00000KT 3SM BR OVC002 19/19 A3002 RMK AO2 T01890189
KBFD 210834Z AUTO 00000KT 2SM BR OVC002 19/19 A3001 RMK AO2 T01890189
KBFD 210810Z AUTO 28003KT 1/2SM FG VV002 19/19 A3001 RMK AO2 T01940194
KBFD 210753Z AUTO 00000KT 1/4SM FG VV002 19/19 A3001 RMK AO2 SLP143 T01940194
KBFD 210746Z AUTO 00000KT 3/4SM BR VV002 19/19 A3001 RMK AO2 T01940194
KBFD 210741Z AUTO 00000KT 2 1/2SM BR BKN002 19/19 A3002 RMK AO2 T01940194
KBFD 210735Z AUTO 00000KT 7SM SCT002 19/19 A3002 RMK AO2 T01890189
KBFD 210653Z AUTO 00000KT 10SM FEW055 18/18 A3002 RMK AO2 SLP146 T01830183
KBFD 210553Z AUTO VRB03KT 10SM CLR 20/19 A3003 RMK AO2 SLP149 T02000194 10267 20183 50002
KBFD 210453Z AUTO 24004KT 10SM CLR 21/19 A3004 RMK AO2 SLP151 T02060194 402940144
KBFD 210353Z AUTO 00000KT 10SM CLR 19/18 A3003 RMK AO2 SLP151 T01890183
KBFD 210253Z AUTO 00000KT 10SM CLR 20/18 A3002 RMK AO2 SLP148 T02000183 51009
KBFD 210153Z AUTO 28005KT 10SM CLR 23/18 A3001 RMK AO2 SLP144 T02330183
KBFD 210053Z AUTO 27003KT 10SM CLR 24/18 A3000 RMK AO2 SLP141 T02440178
KBFD 202353Z AUTO 28009KT 10SM CLR 27/18 A2999 RMK AO2 SLP138 T02670178 10294 20267 53001
KBFD 202253Z AUTO 28013KT 10SM CLR 28/18 A2998 RMK AO2 SLP135 T02830183
KBFD 202153Z AUTO 28010KT 10SM FEW041 28/19 A2998 RMK AO2 SLP137 T02830194
KBFD 202053Z AUTO 30012G20KT 10SM SCT037 29/20 A2999 RMK AO2 SLP139 T02890200 56012
KBFD 201953Z AUTO 30014G19KT 10SM FEW039 SCT049 29/20 A3000 RMK AO2 LTG DSNT NE SLP141 T02890200
KBFD 201853Z AUTO 24009G16KT 10SM SCT042 BKN055 28/20 A3001 RMK AO2 SLP145 T02780200
KBFD 201753Z AUTO 23010G18KT 10SM BKN038 OVC049 27/19 A3003 RMK AO2 SLP153 T02670194 10283 20206 58013
KBFD 201653Z AUTO 22008G17KT 10SM SCT035 SCT075 28/20 A3005 RMK AO2 SLP156 T02830200
KBFD 201553Z AUTO 26009G17KT 10SM SCT032 27/20 A3007 RMK AO2 SLP165 T02670200
KBFD 201453Z AUTO 25008KT 230V300 10SM CLR 26/19 A3007 RMK AO2 SLP165 T02560189 58009
KBFD 201353Z AUTO 24008KT 10SM CLR 25/18 A3009 RMK AO2 SLP171 T02500183
KBFD 201253Z AUTO 24007KT 10SM SCT034 22/18 A3011 RMK AO2 SLP179 T02170178
KBFD 201153Z AUTO 25003KT 10SM FEW036 BKN043 21/18 A3010 RMK AO2 SLP175 T02060178 10206 20144 53005
KBFD 201053Z AUTO 00000KT 5SM BR SCT030 BKN040 16/16 A3008 RMK AO2 SLP171 T01560156 $
KBFD 200953Z AUTO 13003KT 6SM BR SCT034 15/15 A3010 RMK AO2 SLP175 T01500150 $
KBFD 200853Z AUTO 00000KT 6SM BR CLR 16/15 A3009 RMK AO2 SLP171 T01560150 55006 $
KBFD 200753Z AUTO 00000KT 6SM BR CLR 16/16 A3009 RMK AO2 SLP171 T01560156 $
KBFD 200653Z AUTO 00000KT 9SM CLR 17/16 A3010 RMK AO2 SLP175 T01670161 $
KBFD 200553Z AUTO 12004KT 5SM BR CLR 16/16 A3011 RMK AO2 SLP178 T01610161 10261 20161 58007 $
KBFD 200453Z AUTO 00000KT 10SM CLR 18/17 A3013 RMK AO2 SLP186 T01780167 402940122 $
KBFD 200353Z AUTO 00000KT 10SM CLR 19/18 A3013 RMK AO2 SLP183 T01940178 $